Wednesday, June 29, 2016, 1:28 AM EDT

KSEG, Selinsgrove Penn Valley Airport

Location: Selinsgrove, PA, United States Lat: 40.817
Local Time: 1:28 AM EDT ( 5:28 GMT) Lon: -76.867
Time Zone: US/Eastern Elev: 449 ft

Show me the last for .
Show Decoded

2016-06-29 00:53 METAR KSEG 290453Z AUTO 00000KT 7SM CLR 19/18 A2993 RMK AO2 SLP131 T01890178
                 402940189 =
2016-06-28 23:53 METAR KSEG 290353Z AUTO 00000KT 3SM BR CLR 19/18 A2993 RMK AO2 SLP132 T01890178
                 =
2016-06-28 22:53 METAR KSEG 290253Z AUTO 00000KT 7SM SCT070 20/19 A2993 RMK AO2 SLP131 60000
                 T02000189 51022 =
2016-06-28 22:02 METAR KSEG 290202Z AUTO 00000KT 9SM FEW065 SCT080 BKN110 21/19 A2992 RMK AO2
                 T02060189 =
2016-06-28 21:53 METAR KSEG 290153Z AUTO 31004KT 9SM VCTS FEW065 SCT080 BKN110 21/19 A2992 RMK
                 AO2 RAB17E42 SLP127 P0000 T02060189 =
2016-06-28 20:53 METAR KSEG 290053Z AUTO 33008KT 8SM BKN045 BKN050 21/19 A2990 RMK AO2 SLP122
                 T02110194 =
2016-06-28 19:53 METAR KSEG 282353Z AUTO 00000KT 10SM BKN085 22/19 A2986 RMK AO2 LTG DSNT NE
                 RAE48 TSE09 SLP109 P0004 60078 T02170194 10294 20206 50001 =
2016-06-28 19:36 METAR KSEG 282336Z AUTO 12004KT 4SM -RA BR FEW070 OVC090 21/19 A2987 RMK AO2 LTG
                 DSNT E TSE09 P0004 T02110194 =
2016-06-28 19:15 METAR KSEG 282315Z AUTO 06004KT 10SM VCTS -RA FEW018 BKN044 OVC095 21/19 A2987
                 RMK AO2 LTG DSNT SE TSE09 P0002 T02110189 =
2016-06-28 19:04 METAR KSEG 282304Z AUTO 30004KT 3SM -TSRA BR FEW020 BKN042 OVC050 21/19 A2989
                 RMK AO2 LTG DSNT SE P0002 T02060189 =
2016-06-28 19:01 METAR KSEG 282301Z AUTO 29004KT 1 1/2SM TSRA BR SCT020 BKN042 OVC050 21/19 A2989
                 RMK AO2 LTG DSNT E AND SE P0002 T02110189 =
2016-06-28 18:53 METAR KSEG 282253Z AUTO 10003G17KT 1/2SM +TSRA SCT016 BKN044 OVC050 21/18 A2989
                 RMK AO2 LTG DSNT E AND SE RAB2158E09B39 TSB31E51B52 SLP117 P0034 T02110183 =
2016-06-28 18:51 METAR KSEG 282251Z AUTO 14008G17KT 090V160 1/2SM +RA FG SCT016 SCT044 OVC055
                 21/19 A2989 RMK AO2 LTG DSNT E AND SE RAB2158E09B39 TSB31E51 P0031 =
2016-06-28 18:46 METAR KSEG 282246Z AUTO 20010G17KT 1SM TSRA BR FEW016 SCT044 OVC055 22/19 A2988
                 RMK AO2 LTG DSNT E-S RAB2158E09B39 TSB31 PRESRR P0015 T02170194 =
2016-06-28 18:37 METAR KSEG 282237Z AUTO 00000KT 8SM TS BKN055 23/20 A2987 RMK AO2 LTG DSNT E-S
                 RAB2158E09 TSB31 P0000 T02280200 =
2016-06-28 18:04 METAR KSEG 282204Z AUTO 07004KT 8SM VCTS -RA FEW030 SCT055 BKN070 23/21 A2986
                 RMK AO2 LTG DSNT E-SW RAB2158 P0000 T02330206 =
2016-06-28 17:53 METAR KSEG 282153Z AUTO 03004KT 6SM HZ FEW030 BKN060 OVC075 23/21 A2987 RMK AO2
                 LTG DSNT E AND SW RAB07E46 SLP109 P0019 T02330206 =
2016-06-28 17:46 METAR KSEG 282146Z AUTO 00000KT 7SM FEW023 BKN055 OVC080 23/21 A2986 RMK AO2 LTG
                 DSNT E AND SW RAB07E46 P0019 T02280206 =
2016-06-28 17:38 METAR KSEG 282138Z AUTO 13003KT 2 1/2SM -RA FEW027 OVC055 23/20 A2987 RMK AO2
                 RAB07 P0019 T02280200 =
2016-06-28 17:26 METAR KSEG 282126Z AUTO 00000KT 3SM -RA FEW035 BKN050 OVC065 23/20 A2987 RMK AO2
                 LTG DSNT E RAB07 P0015 T02280200 =
2016-06-28 17:22 METAR KSEG 282122Z AUTO 11006KT 1 1/4SM RA FEW033 SCT047 OVC055 23/20 A2986 RMK
                 AO2 LTG DSNT NE AND E RAB07 P0015 T02280200 =
2016-06-28 17:12 METAR KSEG 282112Z AUTO 18003KT 3/4SM +RA SCT047 BKN060 23/19 A2987 RMK AO2 LTG
                 DSNT NE AND E RAB07 P0007 T02280194 =
2016-06-28 17:09 METAR KSEG 282109Z AUTO 00000KT 1 1/2SM -RA BKN047 OVC060 23/19 A2987 RMK AO2
                 LTG DSNT NE AND E RAB07 P0004 T02330194 =
2016-06-28 16:53 METAR KSEG 282053Z AUTO 00000KT 10SM VCTS FEW046 BKN055 25/18 A2986 RMK AO2 LTG
                 DSNT NE AND E TSB25E51 SLP107 60021 T02500183 55003 =
2016-06-28 16:31 METAR KSEG 282031Z AUTO 00000KT 9SM TS FEW025 BKN046 OVC055 24/19 A2987 RMK AO2
                 LTG DSNT NE TSB25 T02390189 =
2016-06-28 16:09 METAR KSEG 282009Z AUTO 29006KT 7SM FEW032 BKN060 24/21 A2985 RMK AO2 LTG DSNT
                 ALQDS T02390211 =
2016-06-28 15:53 METAR KSEG 281953Z AUTO 28003KT 9SM VCTS FEW065 SCT095 24/21 A2984 RMK AO2 LTG
                 DSNT ALQDS RAB05E41 TSB14E39 SLP101 P0021 T02390211 =
2016-06-28 15:45 METAR KSEG 281945Z AUTO 20004KT 10SM VCTS FEW036 FEW050 BKN095 23/21 A2982 RMK
                 AO2 LTG DSNT ALQDS RAB05E41 TSB14E39 P0021 T02330206 =
2016-06-28 15:24 METAR KSEG 281924Z AUTO VRB03G15KT 3SM -TSRA SCT035 BKN048 BKN070 23/19 A2985
                 RMK AO2 LTG DSNT ALQDS RAB05 TSB14 P0020 T02330189 =
2016-06-28 15:22 METAR KSEG 281922Z AUTO VRB06G15KT 1 1/4SM -TSRA SCT035 BKN048 BKN070 23/19
                 A2985 RMK AO2 LTG DSNT ALQDS RAB05 TSB14 P0020 T02280189 =
2016-06-28 15:20 METAR KSEG 281920Z AUTO VRB03G15KT 3/4SM -TSRA SCT035 SCT048 BKN070 23/19 A2985
                 RMK AO2 LTG DSNT ALQDS RAB05 TSB14 P0020 T02280189 =
2016-06-28 15:13 METAR KSEG 281913Z AUTO 25007G15KT 210V300 3/4SM +RA FEW027 SCT070 BKN110 26/21
                 A2986 RMK AO2 LTG DSNT ALQDS RAB05 P0019 T02560211 =
2016-06-28 15:10 METAR KSEG 281910Z AUTO 22010G15KT 2 1/2SM +RA FEW049 SCT085 SCT110 27/21 A2984
                 RMK AO2 LTG DSNT ALQDS RAB05 P0008 T02720206 =
2016-06-28 14:53 METAR KSEG 281853Z AUTO 18008KT 10SM VCTS FEW075 29/21 A2984 RMK AO2 LTG DSNT N
                 AND NE AND SW SLP100 T02940206 =
2016-06-28 13:53 METAR KSEG 281753Z AUTO VRB04KT 9SM SCT090 29/21 A2987 RMK AO2 LTG DSNT N SLP110
                 T02890206 10289 20233 58021 =
2016-06-28 08:53 METAR KSEG 281253Z AUTO VRB04KT 5SM HZ SCT020 24/21 A2994 RMK AO2 SLP136
                 T02440211 =
2016-06-28 08:49 METAR KSEG 281249Z AUTO 19005KT 4SM HZ SCT020 24/21 A2994 RMK AO2 =
2016-06-28 07:53 METAR KSEG 281153Z AUTO 00000KT 5SM HZ OVC018 23/20 A2994 RMK AO2 SLP136 70026
                 T02330200 10233 20206 53006 =
2016-06-28 06:53 METAR KSEG 281053Z AUTO 00000KT 4SM BR OVC016 23/21 A2993 RMK AO2 SLP133
                 T02280206 =
2016-06-28 06:41 METAR KSEG 281041Z AUTO 00000KT 3SM BR OVC016 22/21 A2993 RMK AO2 T02220206 =
2016-06-28 05:53 METAR KSEG 280953Z AUTO 00000KT 5SM BR OVC013 22/21 A2993 RMK AO2 SLP132
                 T02220206 =
2016-06-28 04:53 METAR KSEG 280853Z AUTO 00000KT 6SM BR OVC012 22/21 A2993 RMK AO2 SLP130
                 T02220206 55005 =
2016-06-28 03:53 METAR KSEG 280753Z AUTO 00000KT 7SM OVC013 22/20 A2992 RMK AO2 SLP128 T02220200
                 =
2016-06-28 03:08 METAR KSEG 280708Z AUTO 00000KT 8SM BKN014 21/19 A2993 RMK AO2 T02110194 =
2016-06-28 02:53 METAR KSEG 280653Z AUTO 00000KT 8SM SCT015 21/19 A2993 RMK AO2 SLP132 T02060194
                 =
2016-06-28 01:53 METAR KSEG 280553Z AUTO 00000KT 10SM FEW028 22/19 A2994 RMK AO2 SLP135 T02170194
                 10261 20217 58008 =

Support USWX by starting your Amazon purchase here.